createdAt,value
2023-03-12T00:02:10.444Z,86.04
2023-03-12T00:04:43.144Z,86.02
2023-03-12T00:07:15.128Z,85.80
2023-03-12T00:09:47.059Z,85.84
2023-03-12T00:12:19.065Z,85.70
2023-03-12T00:14:49.732Z,85.75
2023-03-12T00:17:21.656Z,86.00
2023-03-12T00:19:55.653Z,85.80
2023-03-12T00:22:27.675Z,85.53
2023-03-12T00:25:00.124Z,85.63
2023-03-12T00:27:32.254Z,85.80
2023-03-12T00:30:04.901Z,85.86
2023-03-12T00:32:37.178Z,85.92
2023-03-12T00:35:10.483Z,85.70
2023-03-12T00:37:42.586Z,85.81
2023-03-12T00:40:15.892Z,85.90
2023-03-12T00:42:47.891Z,86.07
2023-03-12T00:45:20.071Z,86.16
2023-03-12T00:47:52.558Z,86.23
2023-03-12T00:50:24.661Z,86.08
2023-03-12T00:52:56.630Z,86.17
2023-03-12T00:55:28.725Z,85.97
2023-03-12T00:58:00.794Z,85.93
2023-03-12T01:00:31.835Z,85.83
2023-03-12T01:03:03.948Z,85.44
2023-03-12T01:05:37.868Z,85.56
2023-03-12T01:08:11.410Z,85.47
2023-03-12T01:10:45.333Z,85.49
2023-03-12T01:13:17.795Z,85.71
2023-03-12T01:15:49.962Z,85.47
2023-03-12T01:18:21.980Z,85.41
2023-03-12T01:20:54.238Z,85.19
2023-03-12T01:23:27.314Z,85.23
2023-03-12T01:25:59.552Z,85.35
2023-03-12T01:28:30.101Z,85.16
2023-03-12T01:31:09.445Z,84.92
2023-03-12T01:33:41.700Z,85.02
2023-03-12T01:36:17.733Z,85.15
2023-03-12T01:38:51.642Z,84.84
2023-03-12T01:41:24.101Z,84.90
2023-03-12T01:43:56.283Z,84.94
2023-03-12T01:46:35.290Z,84.82
2023-03-12T01:49:14.947Z,84.70
2023-03-12T01:51:51.157Z,84.94
2023-03-12T01:54:28.505Z,84.70
2023-03-12T01:57:01.856Z,84.67
2023-03-12T01:59:38.598Z,84.71
2023-03-12T02:02:11.380Z,84.61
2023-03-12T02:04:45.974Z,84.64
2023-03-12T02:07:18.751Z,84.61
2023-03-12T02:09:52.050Z,84.41
2023-03-12T02:12:24.073Z,84.41
2023-03-12T02:14:56.130Z,84.44
2023-03-12T02:17:28.038Z,84.59
2023-03-12T02:20:11.096Z,84.60
2023-03-12T02:22:48.338Z,84.60
2023-03-12T02:25:32.126Z,84.45
2023-03-12T02:28:07.983Z,84.42
2023-03-12T02:30:43.684Z,84.55
2023-03-12T02:33:16.282Z,84.51
2023-03-12T02:35:50.075Z,84.42
2023-03-12T02:38:37.697Z,84.58
2023-03-12T02:41:15.433Z,84.35
2023-03-12T02:43:50.761Z,84.25
2023-03-12T02:46:23.218Z,84.24
2023-03-12T02:48:56.878Z,84.07
2023-03-12T02:51:28.873Z,84.19
2023-03-12T02:54:00.805Z,84.16
2023-03-12T02:56:31.679Z,83.89
2023-03-12T02:59:04.619Z,83.85
2023-03-12T03:01:37.563Z,83.90
2023-03-12T03:04:12.407Z,83.78
2023-03-12T03:06:47.751Z,83.58
2023-03-12T03:09:22.276Z,83.82
2023-03-12T03:11:55.206Z,83.73
2023-03-12T03:14:27.679Z,83.63
2023-03-12T03:17:00.567Z,83.64
2023-03-12T03:19:32.519Z,83.58
2023-03-12T03:22:05.478Z,83.28
2023-03-12T03:24:37.377Z,83.06
2023-03-12T03:27:09.417Z,82.98
2023-03-12T03:31:55.055Z,83.02
2023-03-12T03:34:23.999Z,82.87
2023-03-12T03:36:52.827Z,82.97
2023-03-12T03:39:21.654Z,82.88
2023-03-12T03:41:51.490Z,83.00
2023-03-12T03:44:22.524Z,82.83
2023-03-12T03:46:52.933Z,82.72
2023-03-12T03:49:22.148Z,82.77
2023-03-12T03:51:51.495Z,82.60
2023-03-12T03:54:24.260Z,82.62
2023-03-12T03:56:53.180Z,82.57
2023-03-12T03:59:21.889Z,82.47
2023-03-12T04:01:50.712Z,82.53
2023-03-12T04:04:19.767Z,82.66
2023-03-12T04:06:48.594Z,82.69
2023-03-12T04:09:17.435Z,82.64
2023-03-12T04:11:46.431Z,82.70
2023-03-12T04:14:15.218Z,82.45
2023-03-12T04:16:46.055Z,82.73
2023-03-12T04:19:14.908Z,82.63
2023-03-12T04:21:43.694Z,82.47
2023-03-12T04:24:17.032Z,82.17
2023-03-12T04:26:45.288Z,82.02
2023-03-12T04:29:15.188Z,82.04
2023-03-12T04:31:44.333Z,81.96
2023-03-12T04:34:14.574Z,81.78
2023-03-12T04:36:44.371Z,81.56
2023-03-12T04:39:13.177Z,81.49
2023-03-12T04:41:42.106Z,81.48
2023-03-12T04:44:14.027Z,81.37
2023-03-12T04:46:43.610Z,81.33
2023-03-12T04:49:14.874Z,81.16
2023-03-12T04:51:43.813Z,81.04
2023-03-12T04:54:12.605Z,80.96
2023-03-12T04:56:42.177Z,80.98
2023-03-12T04:59:10.842Z,80.69
2023-03-12T05:01:39.806Z,80.52
2023-03-12T05:04:13.328Z,80.55
2023-03-12T05:06:42.056Z,80.41
2023-03-12T05:09:10.838Z,80.23
2023-03-12T05:11:40.032Z,79.86
2023-03-12T05:14:10.546Z,79.80
2023-03-12T05:16:39.622Z,79.85
2023-03-12T05:19:08.649Z,79.67
2023-03-12T05:21:39.625Z,79.63
2023-03-12T05:24:09.083Z,79.75
2023-03-12T05:26:38.829Z,79.66
2023-03-12T05:29:12.871Z,79.93
2023-03-12T05:31:41.753Z,79.88
2023-03-12T05:34:12.202Z,79.57
2023-03-12T05:36:41.492Z,79.22
2023-03-12T05:39:10.295Z,78.60
2023-03-12T05:41:39.271Z,78.17
2023-03-12T05:44:15.386Z,77.27
2023-03-12T05:46:45.442Z,76.71
2023-03-12T05:49:14.159Z,76.52
2023-03-12T05:51:43.203Z,76.18
2023-03-12T05:54:12.061Z,75.70
2023-03-12T05:56:40.983Z,75.53
2023-03-12T05:59:10.337Z,75.53
2023-03-12T06:01:50.808Z,75.18
2023-03-12T06:04:35.352Z,74.96
2023-03-12T06:07:17.627Z,74.88
2023-03-12T06:09:46.474Z,74.72
2023-03-12T06:12:33.008Z,74.47
2023-03-12T06:15:04.477Z,74.11
2023-03-12T06:17:33.980Z,73.84
2023-03-12T06:20:05.501Z,73.68
2023-03-12T06:22:35.199Z,73.32
2023-03-12T06:25:05.090Z,73.38
2023-03-12T06:27:34.020Z,73.65
2023-03-12T06:30:03.105Z,73.76
2023-03-12T06:32:32.194Z,74.01
2023-03-12T06:35:02.029Z,73.88
2023-03-12T06:37:31.511Z,73.14
2023-03-12T06:40:04.121Z,72.14
2023-03-12T06:42:40.498Z,70.08
2023-03-12T06:45:19.354Z,68.92
2023-03-12T06:47:53.559Z,66.50
2023-03-12T06:50:23.472Z,65.36
2023-03-12T06:53:06.915Z,64.36
2023-03-12T06:55:39.999Z,63.14
2023-03-12T06:58:08.943Z,62.03
2023-03-12T07:01:07.502Z,61.79
2023-03-12T07:03:53.522Z,60.85
2023-03-12T07:06:31.643Z,59.27
2023-03-12T07:09:13.249Z,58.52
2023-03-12T07:11:44.831Z,56.97
2023-03-12T07:14:14.577Z,56.64
2023-03-12T07:16:43.405Z,56.38
2023-03-12T07:19:20.557Z,55.86
2023-03-12T07:21:54.617Z,55.41
2023-03-12T07:24:28.178Z,54.70
2023-03-12T07:27:01.584Z,54.45
2023-03-12T07:29:31.739Z,54.29
2023-03-12T07:32:05.706Z,53.23
2023-03-12T07:34:34.777Z,53.07
2023-03-12T07:37:05.802Z,52.99
2023-03-12T07:39:37.628Z,51.72
2023-03-12T07:42:13.191Z,52.07
2023-03-12T07:44:43.950Z,51.12
2023-03-12T07:47:23.285Z,51.26
2023-03-12T07:49:54.424Z,50.48
2023-03-12T07:52:23.502Z,49.86
2023-03-12T07:54:55.977Z,49.39
2023-03-12T07:57:27.145Z,49.29
2023-03-12T07:59:56.619Z,48.83
2023-03-12T08:02:51.421Z,48.97
2023-03-12T08:05:24.134Z,48.55
2023-03-12T08:07:53.714Z,48.45
2023-03-12T08:10:22.894Z,48.52
2023-03-12T08:12:52.047Z,48.68
2023-03-12T08:15:21.057Z,48.34
2023-03-12T08:17:49.779Z,48.17
2023-03-12T08:20:19.440Z,47.64
2023-03-12T08:22:48.550Z,46.70
2023-03-12T08:25:20.384Z,46.25
2023-03-12T08:27:49.085Z,46.28
2023-03-12T08:30:18.546Z,46.70
2023-03-12T08:32:47.199Z,46.38
2023-03-12T08:35:16.367Z,46.54
2023-03-12T08:37:45.317Z,47.40
2023-03-12T08:40:14.544Z,47.10
2023-03-12T08:42:45.007Z,47.08
2023-03-12T08:45:15.125Z,46.90
2023-03-12T08:47:44.363Z,47.60
2023-03-12T08:50:15.911Z,48.25
2023-03-12T08:52:45.267Z,48.62
2023-03-12T08:55:14.706Z,49.21
2023-03-12T08:57:43.471Z,49.54
2023-03-12T09:00:15.620Z,50.04
2023-03-12T09:02:45.084Z,50.32
2023-03-12T09:05:13.881Z,50.36
2023-03-12T09:07:42.670Z,50.16
2023-03-12T09:10:12.121Z,50.90
2023-03-12T09:12:40.838Z,51.17
2023-03-12T09:15:10.708Z,51.04
2023-03-12T09:17:39.794Z,51.01
2023-03-12T09:20:13.345Z,50.97
2023-03-12T09:22:42.562Z,51.05
2023-03-12T09:25:12.984Z,51.72
2023-03-12T09:27:43.771Z,52.30
2023-03-12T09:30:15.571Z,52.38
2023-03-12T09:32:45.121Z,50.86
2023-03-12T09:35:15.653Z,50.01
2023-03-12T09:37:49.218Z,49.79
2023-03-12T09:40:21.286Z,50.11
2023-03-12T09:42:52.382Z,49.03
2023-03-12T09:45:24.539Z,48.40
2023-03-12T09:47:53.829Z,48.66
2023-03-12T09:50:26.932Z,48.67
2023-03-12T09:53:00.742Z,49.75
2023-03-12T09:55:36.078Z,50.58
2023-03-12T09:58:12.718Z,50.69
2023-03-12T10:00:41.548Z,51.77
2023-03-12T10:03:28.240Z,51.67
2023-03-12T10:06:08.498Z,51.83
2023-03-12T10:08:48.580Z,52.12
2023-03-12T10:11:30.223Z,51.59
2023-03-12T10:14:23.031Z,50.57
2023-03-12T10:17:04.139Z,49.61
2023-03-12T10:19:45.750Z,49.43
2023-03-12T10:22:32.599Z,49.68
2023-03-12T10:25:14.374Z,50.06
2023-03-12T10:27:43.337Z,49.43
2023-03-12T10:30:18.321Z,48.23
2023-03-12T10:32:50.503Z,47.97
2023-03-12T10:35:22.088Z,48.57
2023-03-12T10:37:54.091Z,49.85
2023-03-12T10:40:23.303Z,50.51
2023-03-12T10:42:52.916Z,50.99
2023-03-12T10:45:32.415Z,51.10
2023-03-12T10:48:06.507Z,51.46
2023-03-12T10:50:37.409Z,51.34
2023-03-12T10:53:22.538Z,52.00
2023-03-12T10:56:05.816Z,52.27
2023-03-12T10:58:38.342Z,52.36
2023-03-12T11:01:19.313Z,52.56
2023-03-12T11:03:49.522Z,53.47
2023-03-12T11:06:23.429Z,53.05
2023-03-12T11:09:21.916Z,51.91
2023-03-12T11:11:54.105Z,52.51
2023-03-12T11:14:27.005Z,53.74
2023-03-12T11:16:57.047Z,54.06
2023-03-12T11:19:30.708Z,52.79
2023-03-12T11:22:00.907Z,52.55
2023-03-12T11:24:30.086Z,53.07
2023-03-12T11:27:04.154Z,53.02
2023-03-12T11:29:39.664Z,52.37
2023-03-12T11:32:18.054Z,53.42
2023-03-12T11:34:48.848Z,53.44
2023-03-12T11:37:26.929Z,52.96
2023-03-12T11:40:12.397Z,53.23
2023-03-12T11:42:53.326Z,53.26
2023-03-12T11:45:29.668Z,53.61
2023-03-12T11:48:10.852Z,54.08
2023-03-12T11:50:55.477Z,53.94
2023-03-12T11:53:43.856Z,53.15
2023-03-12T11:56:24.064Z,52.36
2023-03-12T11:59:13.450Z,52.67
2023-03-12T12:01:55.740Z,52.54
2023-03-12T12:04:55.957Z,52.02
2023-03-12T12:07:39.580Z,51.93
2023-03-12T12:10:20.708Z,52.38
2023-03-12T12:12:59.508Z,52.53
2023-03-12T12:15:38.372Z,52.70
2023-03-12T12:18:26.046Z,52.09
2023-03-12T12:21:00.830Z,52.15
2023-03-12T12:23:45.082Z,52.27
2023-03-12T12:26:19.256Z,52.21
2023-03-12T12:28:59.321Z,52.44
2023-03-12T12:31:37.992Z,52.59
2023-03-12T12:34:37.941Z,53.38
2023-03-12T12:37:21.722Z,52.65
2023-03-12T12:39:59.872Z,52.49
2023-03-12T12:42:36.348Z,52.35
2023-03-12T12:45:12.348Z,52.58
2023-03-12T12:47:46.382Z,52.39
2023-03-12T12:50:19.790Z,51.81
2023-03-12T12:52:53.345Z,51.55
2023-03-12T12:55:28.273Z,51.23
2023-03-12T12:58:01.086Z,51.50
2023-03-12T13:00:48.754Z,51.05
2023-03-12T13:03:19.380Z,50.59
2023-03-12T13:05:55.317Z,50.53
2023-03-12T13:08:36.546Z,49.92
2023-03-12T13:11:22.271Z,49.51
2023-03-12T13:14:11.897Z,49.92
2023-03-12T13:16:42.413Z,50.12
2023-03-12T13:19:25.670Z,50.57
2023-03-12T13:22:06.104Z,50.88
2023-03-12T13:24:41.276Z,50.64
2023-03-12T13:27:17.955Z,50.65
2023-03-12T13:29:47.029Z,50.96
2023-03-12T13:33:01.163Z,50.28
2023-03-12T13:35:36.348Z,50.89
2023-03-12T13:38:11.763Z,50.11
2023-03-12T13:41:06.096Z,50.19
2023-03-12T13:43:50.719Z,49.70
2023-03-12T13:46:29.745Z,49.89
2023-03-12T13:49:03.602Z,48.96
2023-03-12T13:51:32.784Z,47.94
2023-03-12T13:54:03.698Z,47.21
2023-03-12T13:56:33.839Z,46.83
2023-03-12T13:59:04.638Z,46.93
2023-03-12T14:01:40.555Z,46.75
2023-03-12T14:04:17.390Z,46.51
2023-03-12T14:07:03.123Z,46.98
2023-03-12T14:09:42.614Z,46.63
2023-03-12T14:12:16.577Z,46.51
2023-03-12T14:15:02.968Z,46.86
2023-03-12T14:17:34.188Z,46.80
2023-03-12T14:20:06.633Z,47.01
2023-03-12T14:22:38.668Z,47.25
2023-03-12T14:25:16.112Z,47.55
2023-03-12T14:27:47.602Z,48.15
2023-03-12T14:30:22.417Z,46.89
2023-03-12T14:32:55.965Z,45.78
2023-03-12T14:35:28.871Z,45.96
2023-03-12T14:38:03.052Z,46.39
2023-03-12T14:40:38.354Z,45.76
2023-03-12T14:43:22.449Z,45.61
2023-03-12T14:45:53.825Z,45.38
2023-03-12T14:48:27.228Z,45.62
2023-03-12T14:50:57.660Z,45.79
2023-03-12T14:53:30.041Z,46.22
2023-03-12T14:56:02.174Z,46.10
2023-03-12T14:58:31.730Z,46.25
2023-03-12T15:01:03.713Z,46.32
2023-03-12T15:03:43.324Z,46.47
2023-03-12T15:06:24.546Z,46.56
2023-03-12T15:08:53.784Z,47.25
2023-03-12T15:11:25.372Z,47.86
2023-03-12T15:13:56.053Z,48.17
2023-03-12T15:16:24.855Z,48.44
2023-03-12T15:18:53.815Z,48.92
2023-03-12T15:21:22.931Z,48.64
2023-03-12T15:23:51.988Z,48.43
2023-03-12T15:26:29.904Z,48.56
2023-03-12T15:29:18.054Z,48.20
2023-03-12T15:31:48.732Z,47.66
2023-03-12T15:34:31.368Z,47.89
2023-03-12T15:37:01.337Z,47.66
2023-03-12T15:39:32.432Z,47.93
2023-03-12T15:42:07.523Z,48.13
2023-03-12T15:44:44.854Z,48.20
2023-03-12T15:47:18.121Z,47.36
2023-03-12T15:49:53.039Z,46.89
2023-03-12T15:52:31.722Z,46.28
2023-03-12T15:55:08.589Z,46.63
2023-03-12T15:57:47.956Z,47.20
2023-03-12T16:00:28.875Z,47.67
2023-03-12T16:02:59.612Z,47.55
2023-03-12T16:05:33.800Z,47.84
2023-03-12T16:08:12.609Z,47.97
2023-03-12T16:10:43.719Z,48.00
2023-03-12T16:13:15.554Z,48.25
2023-03-12T16:15:46.713Z,48.60
2023-03-12T16:18:19.253Z,48.86
2023-03-12T16:20:49.549Z,49.30
2023-03-12T16:23:20.465Z,49.17
2023-03-12T16:25:52.727Z,49.19
2023-03-12T16:28:23.050Z,49.27
2023-03-12T16:30:54.270Z,49.38
2023-03-12T16:33:24.554Z,49.46
2023-03-12T16:35:53.305Z,49.86
2023-03-12T16:38:22.220Z,49.97
2023-03-12T16:40:51.833Z,50.30
2023-03-12T16:43:28.495Z,50.12
2023-03-12T16:45:59.074Z,49.92
2023-03-12T16:48:28.223Z,50.28
2023-03-12T16:50:57.880Z,50.49
2023-03-12T16:53:27.766Z,51.00
2023-03-12T16:55:59.880Z,51.31
2023-03-12T16:58:29.514Z,51.43
2023-03-12T17:01:00.345Z,51.71
2023-03-12T17:03:36.108Z,51.79
2023-03-12T17:06:12.934Z,51.85
2023-03-12T17:08:42.406Z,51.97
2023-03-12T17:11:22.840Z,51.80
2023-03-12T17:13:55.479Z,51.87
2023-03-12T17:16:24.701Z,51.84
2023-03-12T17:18:53.756Z,51.43
2023-03-12T17:21:23.012Z,51.16
2023-03-12T17:23:51.796Z,50.89
2023-03-12T17:26:20.620Z,50.86
2023-03-12T17:28:50.464Z,50.92
2023-03-12T17:31:21.196Z,50.93
2023-03-12T17:33:50.480Z,51.33
2023-03-12T17:36:21.646Z,51.70
2023-03-12T17:38:51.011Z,52.21
2023-03-12T17:41:26.454Z,52.20
2023-03-12T17:44:00.875Z,52.55
2023-03-12T17:46:30.119Z,52.33
2023-03-12T17:48:59.303Z,51.97
2023-03-12T17:51:29.260Z,52.01
2023-03-12T17:53:59.763Z,52.24
2023-03-12T17:56:29.684Z,52.62
2023-03-12T17:58:58.490Z,52.98
2023-03-12T18:01:28.221Z,53.34
2023-03-12T18:03:57.089Z,53.71
2023-03-12T18:06:26.739Z,53.72
2023-03-12T18:08:58.552Z,53.75
2023-03-12T18:11:27.963Z,53.47
2023-03-12T18:13:57.065Z,53.47
2023-03-12T18:16:26.056Z,53.38
2023-03-12T18:18:54.848Z,53.29
2023-03-12T18:21:24.427Z,52.95
2023-03-12T18:23:55.791Z,53.07
2023-03-12T18:26:28.032Z,53.28
2023-03-12T18:28:57.664Z,52.90
2023-03-12T18:31:27.205Z,52.66
2023-03-12T18:33:56.393Z,52.37
2023-03-12T18:36:25.603Z,51.96
2023-03-12T18:38:54.320Z,52.20
2023-03-12T18:41:28.137Z,52.23
2023-03-12T18:43:57.839Z,52.23
2023-03-12T18:46:29.145Z,52.24
2023-03-12T18:49:02.869Z,52.42
2023-03-12T18:51:31.944Z,52.24
2023-03-12T18:54:01.750Z,52.57
2023-03-12T18:56:30.908Z,53.00
2023-03-12T18:58:59.602Z,53.17
2023-03-12T19:01:29.688Z,53.31
2023-03-12T19:04:00.891Z,53.22
2023-03-12T19:06:37.894Z,52.49
2023-03-12T19:09:16.914Z,52.43
2023-03-12T19:11:47.741Z,52.04
2023-03-12T19:14:17.495Z,51.93
2023-03-12T19:16:47.531Z,51.72
2023-03-12T19:19:16.804Z,51.72
2023-03-12T19:21:45.492Z,50.98
2023-03-12T19:24:14.285Z,51.14
2023-03-12T19:26:43.306Z,50.91
2023-03-12T19:29:15.875Z,51.09
2023-03-12T19:31:44.694Z,50.85
2023-03-12T19:34:14.111Z,50.75
2023-03-12T19:36:43.689Z,50.79
2023-03-12T19:39:21.087Z,50.74
2023-03-12T19:41:50.844Z,50.76
2023-03-12T19:44:21.807Z,51.11
2023-03-12T19:46:50.671Z,51.02
2023-03-12T19:49:19.732Z,51.12
2023-03-12T19:51:48.763Z,51.18
2023-03-12T19:54:17.871Z,51.52
2023-03-12T19:56:46.741Z,51.61
2023-03-12T19:59:16.519Z,51.94
2023-03-12T20:01:45.103Z,52.21
2023-03-12T20:04:14.135Z,52.48
2023-03-12T20:06:42.861Z,52.49
2023-03-12T20:09:11.835Z,52.72
2023-03-12T20:11:40.982Z,52.90
2023-03-12T20:14:09.778Z,53.04
2023-03-12T20:16:38.759Z,53.38
2023-03-12T20:19:08.142Z,53.35
2023-03-12T20:21:36.773Z,53.66
2023-03-12T20:24:06.466Z,53.79
2023-03-12T20:26:38.784Z,53.98
2023-03-12T20:29:07.657Z,54.14
2023-03-12T20:31:36.513Z,54.29
2023-03-12T20:34:05.213Z,54.49
2023-03-12T20:36:34.024Z,54.61
2023-03-12T20:39:02.886Z,54.79
2023-03-12T20:41:31.700Z,55.05
2023-03-12T20:44:00.767Z,55.13
2023-03-12T20:46:29.745Z,55.28
2023-03-12T20:48:58.362Z,55.20
2023-03-12T20:51:27.037Z,55.40
2023-03-12T20:53:56.283Z,55.42
2023-03-12T20:56:24.889Z,55.24
2023-03-12T20:58:53.551Z,55.48
2023-03-12T21:01:22.305Z,55.47
2023-03-12T21:03:51.089Z,55.46
2023-03-12T21:06:19.713Z,55.68
2023-03-12T21:08:48.470Z,55.76
2023-03-12T21:11:17.096Z,55.72
2023-03-12T21:13:45.825Z,55.71
2023-03-12T21:16:14.413Z,55.76
2023-03-12T21:18:43.010Z,55.68
2023-03-12T21:21:12.086Z,55.87
2023-03-12T21:23:40.833Z,56.07
2023-03-12T21:26:11.341Z,56.05
2023-03-12T21:28:40.011Z,56.07
2023-03-12T21:31:10.866Z,56.16
2023-03-12T21:33:39.764Z,56.20
2023-03-12T21:36:11.427Z,56.37
2023-03-12T21:38:42.102Z,56.54
2023-03-12T21:41:12.071Z,56.61
2023-03-12T21:43:41.601Z,56.68
2023-03-12T21:46:12.095Z,56.76
2023-03-12T21:48:42.916Z,56.72
2023-03-12T21:51:12.970Z,56.97
2023-03-12T21:53:41.878Z,57.02
2023-03-12T21:56:11.572Z,57.16
2023-03-12T21:58:40.221Z,57.38
2023-03-12T22:01:11.139Z,57.20
2023-03-12T22:03:40.938Z,57.16
2023-03-12T22:06:10.829Z,57.36
2023-03-12T22:08:39.796Z,57.31
2023-03-12T22:11:09.406Z,57.55
2023-03-12T22:13:38.218Z,57.79
2023-03-12T22:16:08.525Z,57.77
2023-03-12T22:18:42.917Z,57.79
2023-03-12T22:21:15.778Z,58.12
2023-03-12T22:23:47.019Z,58.19
2023-03-12T22:26:15.822Z,58.22
2023-03-12T22:28:50.094Z,58.30
2023-03-12T22:31:20.158Z,58.42
2023-03-12T22:33:48.912Z,58.61
2023-03-12T22:36:18.515Z,58.60
2023-03-12T22:38:47.569Z,58.77
2023-03-12T22:41:18.480Z,58.75
2023-03-12T22:43:48.366Z,59.08
2023-03-12T22:46:20.762Z,59.20
2023-03-12T22:48:53.701Z,59.34
2023-03-12T22:51:22.938Z,59.54
2023-03-12T22:53:51.836Z,59.40
2023-03-12T22:56:20.922Z,59.47
2023-03-12T22:58:49.993Z,59.52
2023-03-12T23:01:20.670Z,59.50
2023-03-12T23:03:49.904Z,59.66
2023-03-12T23:06:20.944Z,59.66
2023-03-12T23:08:49.953Z,60.06
2023-03-12T23:11:20.179Z,59.86
2023-03-12T23:13:49.149Z,59.85
2023-03-12T23:16:19.689Z,59.96
2023-03-12T23:18:49.208Z,60.10
2023-03-12T23:21:19.833Z,60.35
2023-03-12T23:23:49.568Z,60.37
2023-03-12T23:26:19.869Z,60.57
2023-03-12T23:28:50.584Z,60.79
2023-03-12T23:31:21.970Z,60.97
2023-03-12T23:33:50.790Z,61.04
2023-03-12T23:36:21.966Z,61.16
2023-03-12T23:38:51.448Z,61.36
2023-03-12T23:41:21.545Z,61.55
2023-03-12T23:43:50.403Z,61.63
2023-03-12T23:46:19.453Z,61.83
2023-03-12T23:48:48.561Z,61.94
2023-03-12T23:51:19.012Z,62.05
2023-03-12T23:53:48.942Z,62.25
2023-03-12T23:56:20.058Z,62.46
2023-03-12T23:58:50.047Z,62.69
